sensor_id;sensor_type;location;lat;lon;timestamp;pressure;altitude;pressure_sealevel;temperature;humidity
75627;BME280;64211;49.404;11.034;2022-10-20T00:01:35;98745.84;;;6.60;83.47
75627;BME280;64211;49.404;11.034;2022-10-20T00:04:01;98751.16;;;6.60;83.86
75627;BME280;64211;49.404;11.034;2022-10-20T00:06:29;98747.03;;;6.57;84.18
75627;BME280;64211;49.404;11.034;2022-10-20T00:08:58;98744.56;;;6.56;84.42
75627;BME280;64211;49.404;11.034;2022-10-20T00:11:25;98740.28;;;6.55;83.93
75627;BME280;64211;49.404;11.034;2022-10-20T00:13:53;98742.75;;;6.56;84.04
75627;BME280;64211;49.404;11.034;2022-10-20T00:16:20;98729.50;;;6.56;83.52
75627;BME280;64211;49.404;11.034;2022-10-20T00:18:46;98729.50;;;6.56;83.57
75627;BME280;64211;49.404;11.034;2022-10-20T00:21:14;98722.72;;;6.54;83.12
75627;BME280;64211;49.404;11.034;2022-10-20T00:23:40;98716.78;;;6.52;83.72
75627;BME280;64211;49.404;11.034;2022-10-20T00:26:09;98724.09;;;6.50;83.26
75627;BME280;64211;49.404;11.034;2022-10-20T00:28:36;98721.63;;;6.48;83.21
75627;BME280;64211;49.404;11.034;2022-10-20T00:31:03;98728.75;;;6.47;83.56
75627;BME280;64211;49.404;11.034;2022-10-20T00:33:29;98726.28;;;6.46;83.54
75627;BME280;64211;49.404;11.034;2022-10-20T00:36:01;98720.50;;;6.42;82.99
75627;BME280;64211;49.404;11.034;2022-10-20T00:38:27;98731.59;;;6.38;82.56
75627;BME280;64211;49.404;11.034;2022-10-20T00:40:53;98724.38;;;6.32;83.16
75627;BME280;64211;49.404;11.034;2022-10-20T00:43:19;98728.19;;;6.29;83.49
75627;BME280;64211;49.404;11.034;2022-10-20T00:45:53;98726.06;;;6.25;83.27
75627;BME280;64211;49.404;11.034;2022-10-20T00:48:24;98720.13;;;6.23;83.32
75627;BME280;64211;49.404;11.034;2022-10-20T00:50:54;98727.78;;;6.18;83.06
75627;BME280;64211;49.404;11.034;2022-10-20T00:53:23;98724.16;;;6.10;83.48
75627;BME280;64211;49.404;11.034;2022-10-20T00:55:53;98722.88;;;6.06;83.58
75627;BME280;64211;49.404;11.034;2022-10-20T00:58:20;98734.66;;;6.04;83.39
75627;BME280;64211;49.404;11.034;2022-10-20T01:00:49;98719.47;;;5.98;83.52
75627;BME280;64211;49.404;11.034;2022-10-20T01:03:23;98717.00;;;5.96;83.85
75627;BME280;64211;49.404;11.034;2022-10-20T01:05:49;98714.34;;;5.96;83.51
75627;BME280;64211;49.404;11.034;2022-10-20T01:08:14;98715.81;;;5.99;83.30
75627;BME280;64211;49.404;11.034;2022-10-20T01:11:00;98709.03;;;5.96;84.06
75627;BME280;64211;49.404;11.034;2022-10-20T01:13:45;98699.28;;;5.89;83.80
75627;BME280;64211;49.404;11.034;2022-10-20T01:18:59;98697.81;;;5.86;84.16
75627;BME280;64211;49.404;11.034;2022-10-20T01:22:07;98698.16;;;5.83;84.05
75627;BME280;64211;49.404;11.034;2022-10-20T01:25:01;98706.63;;;5.78;84.66
75627;BME280;64211;49.404;11.034;2022-10-20T01:27:32;98702.16;;;5.79;84.22
75627;BME280;64211;49.404;11.034;2022-10-20T01:30:17;98694.84;;;5.81;84.54
75627;BME280;64211;49.404;11.034;2022-10-20T01:33:10;98694.03;;;5.80;84.26
75627;BME280;64211;49.404;11.034;2022-10-20T01:35:46;98698.03;;;5.76;84.47
75627;BME280;64211;49.404;11.034;2022-10-20T01:38:25;98693.91;;;5.74;84.08
75627;BME280;64211;49.404;11.034;2022-10-20T01:41:19;98689.78;;;5.71;84.47
75627;BME280;64211;49.404;11.034;2022-10-20T01:43:47;98690.63;;;5.72;84.12
75627;BME280;64211;49.404;11.034;2022-10-20T01:46:14;98685.31;;;5.72;83.46
75627;BME280;64211;49.404;11.034;2022-10-20T01:48:42;98686.16;;;5.72;83.59
75627;BME280;64211;49.404;11.034;2022-10-20T01:51:08;98684.16;;;5.74;83.22
75627;BME280;64211;49.404;11.034;2022-10-20T01:53:35;98684.31;;;5.73;83.65
75627;BME280;64211;49.404;11.034;2022-10-20T01:56:02;98688.97;;;5.71;83.41
75627;BME280;64211;49.404;11.034;2022-10-20T01:58:38;98682.53;;;5.65;83.51
75627;BME280;64211;49.404;11.034;2022-10-20T02:01:34;98680.88;;;5.64;83.24
75627;BME280;64211;49.404;11.034;2022-10-20T02:04:03;98662.69;;;5.61;83.17
75627;BME280;64211;49.404;11.034;2022-10-20T02:06:41;98662.06;;;5.59;83.64
75627;BME280;64211;49.404;11.034;2022-10-20T02:09:33;98646.69;;;5.54;84.05
75627;BME280;64211;49.404;11.034;2022-10-20T02:12:05;98642.94;;;5.49;84.91
75627;BME280;64211;49.404;11.034;2022-10-20T02:14:32;98648.56;;;5.46;84.39
75627;BME280;64211;49.404;11.034;2022-10-20T02:17:03;98658.16;;;5.47;83.66
75627;BME280;64211;49.404;11.034;2022-10-20T02:19:34;98652.88;;;5.47;83.60
75627;BME280;64211;49.404;11.034;2022-10-20T02:22:01;98648.41;;;5.47;84.07
75627;BME280;64211;49.404;11.034;2022-10-20T02:24:33;98643.94;;;5.48;84.04
75627;BME280;64211;49.404;11.034;2022-10-20T02:27:03;98635.81;;;5.49;82.90
75627;BME280;64211;49.404;11.034;2022-10-20T02:29:38;98633.00;;;5.51;83.60
75627;BME280;64211;49.404;11.034;2022-10-20T02:32:06;98622.94;;;5.46;83.72
75627;BME280;64211;49.404;11.034;2022-10-20T02:34:33;98625.91;;;5.43;83.84
75627;BME280;64211;49.404;11.034;2022-10-20T02:36:59;98621.59;;;5.42;83.77
75627;BME280;64211;49.404;11.034;2022-10-20T02:39:25;98626.44;;;5.39;83.00
75627;BME280;64211;49.404;11.034;2022-10-20T02:41:51;98621.31;;;5.37;83.45
75627;BME280;64211;49.404;11.034;2022-10-20T02:44:17;98620.66;;;5.35;83.47
75627;BME280;64211;49.404;11.034;2022-10-20T02:46:42;98627.13;;;5.33;83.46
75627;BME280;64211;49.404;11.034;2022-10-20T02:49:08;98627.00;;;5.26;84.18
75627;BME280;64211;49.404;11.034;2022-10-20T02:51:34;98629.66;;;5.18;83.97
75627;BME280;64211;49.404;11.034;2022-10-20T02:53:59;98622.25;;;5.13;83.51
75627;BME280;64211;49.404;11.034;2022-10-20T02:56:25;98620.13;;;5.09;84.26
75627;BME280;64211;49.404;11.034;2022-10-20T02:58:56;98625.56;;;5.07;84.11
75627;BME280;64211;49.404;11.034;2022-10-20T03:01:22;98626.56;;;5.06;84.29
75627;BME280;64211;49.404;11.034;2022-10-20T03:03:49;98622.59;;;5.10;83.95
75627;BME280;64211;49.404;11.034;2022-10-20T03:06:15;98624.88;;;5.13;84.12
75627;BME280;64211;49.404;11.034;2022-10-20T03:08:41;98621.41;;;5.13;82.99
75627;BME280;64211;49.404;11.034;2022-10-20T03:11:08;98623.06;;;5.14;83.75
75627;BME280;64211;49.404;11.034;2022-10-20T03:13:34;98625.72;;;5.14;83.16
75627;BME280;64211;49.404;11.034;2022-10-20T03:16:00;98620.41;;;5.14;83.19
75627;BME280;64211;49.404;11.034;2022-10-20T03:18:26;98613.47;;;5.13;82.65
75627;BME280;64211;49.404;11.034;2022-10-20T03:20:53;98618.94;;;5.11;82.72
75627;BME280;64211;49.404;11.034;2022-10-20T03:23:19;98629.22;;;5.06;83.84
75627;BME280;64211;49.404;11.034;2022-10-20T03:25:46;98621.97;;;5.00;83.12
75627;BME280;64211;49.404;11.034;2022-10-20T03:28:11;98618.00;;;4.96;83.84
75627;BME280;64211;49.404;11.034;2022-10-20T03:30:37;98621.47;;;4.97;83.51
75627;BME280;64211;49.404;11.034;2022-10-20T03:33:03;98622.47;;;4.96;83.42
75627;BME280;64211;49.404;11.034;2022-10-20T03:35:29;98628.75;;;4.94;84.04
75627;BME280;64211;49.404;11.034;2022-10-20T03:37:55;98631.38;;;4.94;84.21
75627;BME280;64211;49.404;11.034;2022-10-20T03:40:20;98620.63;;;4.96;83.21
75627;BME280;64211;49.404;11.034;2022-10-20T03:42:46;98619.50;;;4.99;83.54
75627;BME280;64211;49.404;11.034;2022-10-20T03:45:12;98619.97;;;5.02;83.60
75627;BME280;64211;49.404;11.034;2022-10-20T03:47:43;98618.00;;;5.04;82.94
75627;BME280;64211;49.404;11.034;2022-10-20T03:50:08;98610.06;;;5.04;82.80
75627;BME280;64211;49.404;11.034;2022-10-20T03:52:34;98620.47;;;5.06;82.83
75627;BME280;64211;49.404;11.034;2022-10-20T03:55:01;98614.19;;;5.07;82.42
75627;BME280;64211;49.404;11.034;2022-10-20T03:57:27;98611.34;;;5.08;83.10
75627;BME280;64211;49.404;11.034;2022-10-20T03:59:53;98602.47;;;5.01;82.83
75627;BME280;64211;49.404;11.034;2022-10-20T04:02:27;98604.47;;;4.99;83.90
75627;BME280;64211;49.404;11.034;2022-10-20T04:04:54;98606.47;;;4.97;83.54
75627;BME280;64211;49.404;11.034;2022-10-20T04:07:20;98606.78;;;4.94;83.99
75627;BME280;64211;49.404;11.034;2022-10-20T04:09:45;98609.59;;;4.92;82.94
75627;BME280;64211;49.404;11.034;2022-10-20T04:12:11;98606.13;;;4.92;83.41
75627;BME280;64211;49.404;11.034;2022-10-20T04:14:37;98611.91;;;4.87;83.11
75627;BME280;64211;49.404;11.034;2022-10-20T04:17:02;98615.25;;;4.81;82.98
75627;BME280;64211;49.404;11.034;2022-10-20T04:19:28;98605.69;;;4.80;83.12
75627;BME280;64211;49.404;11.034;2022-10-20T04:21:54;98604.38;;;4.76;83.24
75627;BME280;64211;49.404;11.034;2022-10-20T04:24:20;98598.75;;;4.71;83.09
75627;BME280;64211;49.404;11.034;2022-10-20T04:26:47;98605.53;;;4.74;83.76
75627;BME280;64211;49.404;11.034;2022-10-20T04:29:13;98603.72;;;4.74;83.75
75627;BME280;64211;49.404;11.034;2022-10-20T04:31:38;98603.84;;;4.73;82.76
75627;BME280;64211;49.404;11.034;2022-10-20T04:34:04;98603.84;;;4.73;83.75
75627;BME280;64211;49.404;11.034;2022-10-20T04:36:30;98604.19;;;4.70;83.84
75627;BME280;64211;49.404;11.034;2022-10-20T04:38:55;98603.38;;;4.69;83.20
75627;BME280;64211;49.404;11.034;2022-10-20T04:41:21;98601.38;;;4.71;83.14
75627;BME280;64211;49.404;11.034;2022-10-20T04:43:52;98596.91;;;4.72;83.03
75627;BME280;64211;49.404;11.034;2022-10-20T04:46:18;98589.00;;;4.72;82.85
75627;BME280;64211;49.404;11.034;2022-10-20T04:48:44;98586.69;;;4.69;83.98
75627;BME280;64211;49.404;11.034;2022-10-20T04:51:12;98584.56;;;4.64;83.97
75627;BME280;64211;49.404;11.034;2022-10-20T04:53:38;98582.28;;;4.61;84.46
75627;BME280;64211;49.404;11.034;2022-10-20T04:56:05;98569.72;;;4.63;84.13
75627;BME280;64211;49.404;11.034;2022-10-20T04:58:32;98570.72;;;4.62;84.34
75627;BME280;64211;49.404;11.034;2022-10-20T05:01:03;98572.34;;;4.63;84.92
75627;BME280;64211;49.404;11.034;2022-10-20T05:03:29;98566.72;;;4.66;83.65
75627;BME280;64211;49.404;11.034;2022-10-20T05:06:16;98568.03;;;4.70;83.98
75627;BME280;64211;49.404;11.034;2022-10-20T05:08:43;98563.09;;;4.75;83.55
75627;BME280;64211;49.404;11.034;2022-10-20T05:11:11;98557.44;;;4.78;83.87
75627;BME280;64211;49.404;11.034;2022-10-20T05:13:37;98564.03;;;4.82;83.34
75627;BME280;64211;49.404;11.034;2022-10-20T05:16:04;98560.22;;;4.85;83.10
75627;BME280;64211;49.404;11.034;2022-10-20T05:18:30;98549.50;;;4.86;82.88
75627;BME280;64211;49.404;11.034;2022-10-20T05:20:56;98545.03;;;4.87;83.10
75627;BME280;64211;49.404;11.034;2022-10-20T05:23:34;98544.53;;;4.83;83.38
75627;BME280;64211;49.404;11.034;2022-10-20T05:26:02;98543.72;;;4.83;82.40
75627;BME280;64211;49.404;11.034;2022-10-20T05:28:28;98552.81;;;4.80;83.56
75627;BME280;64211;49.404;11.034;2022-10-20T05:30:53;98560.44;;;4.75;83.69
75627;BME280;64211;49.404;11.034;2022-10-20T05:33:24;98560.94;;;4.71;82.70
75627;BME280;64211;49.404;11.034;2022-10-20T05:35:50;98559.94;;;4.72;82.73
75627;BME280;64211;49.404;11.034;2022-10-20T05:38:15;98561.56;;;4.73;83.40
75627;BME280;64211;49.404;11.034;2022-10-20T05:40:41;98557.16;;;4.73;83.32
75627;BME280;64211;49.404;11.034;2022-10-20T05:43:07;98554.34;;;4.75;82.83
75627;BME280;64211;49.404;11.034;2022-10-20T05:45:32;98544.59;;;4.75;83.74
75627;BME280;64211;49.404;11.034;2022-10-20T05:47:58;98547.06;;;4.77;83.25
75627;BME280;64211;49.404;11.034;2022-10-20T05:50:24;98541.44;;;4.80;83.96
75627;BME280;64211;49.404;11.034;2022-10-20T05:52:49;98548.19;;;4.82;82.92
75627;BME280;64211;49.404;11.034;2022-10-20T05:55:15;98542.38;;;4.87;83.54
75627;BME280;64211;49.404;11.034;2022-10-20T05:57:41;98540.50;;;4.96;83.53
75627;BME280;64211;49.404;11.034;2022-10-20T06:00:07;98535.22;;;5.04;82.97
75627;BME280;64211;49.404;11.034;2022-10-20T06:02:33;98537.63;;;5.13;83.27
75627;BME280;64211;49.404;11.034;2022-10-20T06:04:59;98538.91;;;5.26;83.84
75627;BME280;64211;49.404;11.034;2022-10-20T06:07:25;98526.91;;;5.38;83.48
75627;BME280;64211;49.404;11.034;2022-10-20T06:09:51;98526.34;;;5.50;82.76
75627;BME280;64211;49.404;11.034;2022-10-20T06:12:17;98520.97;;;5.59;82.19
75627;BME280;64211;49.404;11.034;2022-10-20T06:14:42;98524.38;;;5.67;82.35
75627;BME280;64211;49.404;11.034;2022-10-20T06:17:08;98525.16;;;5.76;82.17
75627;BME280;64211;49.404;11.034;2022-10-20T06:19:34;98526.72;;;5.85;81.86
75627;BME280;64211;49.404;11.034;2022-10-20T06:21:59;98524.25;;;5.92;81.96
75627;BME280;64211;49.404;11.034;2022-10-20T06:24:32;98532.09;;;6.00;82.25
75627;BME280;64211;49.404;11.034;2022-10-20T06:26:58;98524.09;;;6.08;82.30
75627;BME280;64211;49.404;11.034;2022-10-20T06:29:23;98525.50;;;6.19;82.85
75627;BME280;64211;49.404;11.034;2022-10-20T06:31:50;98527.69;;;6.30;82.66
75627;BME280;64211;49.404;11.034;2022-10-20T06:34:19;98529.28;;;6.39;82.61
75627;BME280;64211;49.404;11.034;2022-10-20T06:36:46;98520.22;;;6.48;82.34
75627;BME280;64211;49.404;11.034;2022-10-20T06:39:15;98527.88;;;6.58;82.92
75627;BME280;64211;49.404;11.034;2022-10-20T06:41:42;98525.63;;;6.69;82.88
75627;BME280;64211;49.404;11.034;2022-10-20T06:44:08;98525.94;;;6.81;82.40
75627;BME280;64211;49.404;11.034;2022-10-20T06:46:35;98532.19;;;6.88;82.16
75627;BME280;64211;49.404;11.034;2022-10-20T06:49:02;98536.75;;;6.94;82.30
75627;BME280;64211;49.404;11.034;2022-10-20T06:51:28;98535.44;;;7.05;82.56
75627;BME280;64211;49.404;11.034;2022-10-20T06:53:54;98543.38;;;7.20;81.80
75627;BME280;64211;49.404;11.034;2022-10-20T06:56:24;98520.66;;;7.32;82.11
75627;BME280;64211;49.404;11.034;2022-10-20T06:58:52;98519.34;;;7.43;81.69
75627;BME280;64211;49.404;11.034;2022-10-20T07:01:21;98531.28;;;7.53;82.02
75627;BME280;64211;49.404;11.034;2022-10-20T07:03:48;98516.28;;;7.60;81.54
75627;BME280;64211;49.404;11.034;2022-10-20T07:06:26;98522.06;;;7.70;81.67
75627;BME280;64211;49.404;11.034;2022-10-20T07:08:53;98524.03;;;7.83;81.92
75627;BME280;64211;49.404;11.034;2022-10-20T07:11:25;98523.94;;;7.98;81.27
75627;BME280;64211;49.404;11.034;2022-10-20T07:13:51;98520.59;;;8.11;81.29
75627;BME280;64211;49.404;11.034;2022-10-20T07:16:22;98526.00;;;8.24;81.17
75627;BME280;64211;49.404;11.034;2022-10-20T07:18:49;98530.81;;;8.35;81.28
75627;BME280;64211;49.404;11.034;2022-10-20T07:21:17;98527.00;;;8.44;81.19
75627;BME280;64211;49.404;11.034;2022-10-20T07:23:44;98519.44;;;8.48;79.85
75627;BME280;64211;49.404;11.034;2022-10-20T07:26:18;98510.13;;;8.58;81.04
75627;BME280;64211;49.404;11.034;2022-10-20T07:28:47;98502.38;;;8.64;80.70
75627;BME280;64211;49.404;11.034;2022-10-20T07:31:19;98514.88;;;8.70;80.31
75627;BME280;64211;49.404;11.034;2022-10-20T07:33:46;98517.75;;;8.75;80.08
75627;BME280;64211;49.404;11.034;2022-10-20T07:36:32;98512.72;;;8.86;80.98
75627;BME280;64211;49.404;11.034;2022-10-20T07:39:03;98503.97;;;8.99;80.61
75627;BME280;64211;49.404;11.034;2022-10-20T07:41:29;98520.41;;;9.16;80.09
75627;BME280;64211;49.404;11.034;2022-10-20T07:43:55;98506.94;;;9.31;80.05
75627;BME280;64211;49.404;11.034;2022-10-20T07:46:22;98497.94;;;9.45;78.62
75627;BME280;64211;49.404;11.034;2022-10-20T07:48:48;98493.50;;;9.59;79.14
75627;BME280;64211;49.404;11.034;2022-10-20T07:53:41;98486.75;;;9.82;77.87
75627;BME280;64211;49.404;11.034;2022-10-20T07:56:07;98487.34;;;9.91;77.66
75627;BME280;64211;49.404;11.034;2022-10-20T07:58:34;98490.84;;;10.05;77.53
75627;BME280;64211;49.404;11.034;2022-10-20T08:01:00;98487.16;;;10.12;76.25
75627;BME280;64211;49.404;11.034;2022-10-20T08:03:25;98481.66;;;10.21;76.15
75627;BME280;64211;49.404;11.034;2022-10-20T08:05:51;98492.09;;;10.29;75.77
75627;BME280;64211;49.404;11.034;2022-10-20T08:08:17;98487.16;;;10.39;75.94
75627;BME280;64211;49.404;11.034;2022-10-20T08:10:43;98486.94;;;10.47;74.79
75627;BME280;64211;49.404;11.034;2022-10-20T08:13:09;98478.50;;;10.57;74.27
75627;BME280;64211;49.404;11.034;2022-10-20T08:15:34;98470.88;;;10.60;74.09
75627;BME280;64211;49.404;11.034;2022-10-20T08:18:08;98461.84;;;10.68;73.26
75627;BME280;64211;49.404;11.034;2022-10-20T08:20:51;98453.78;;;10.81;75.12
75627;BME280;64211;49.404;11.034;2022-10-20T08:23:17;98461.75;;;10.94;73.94
75627;BME280;64211;49.404;11.034;2022-10-20T08:25:43;98463.09;;;11.10;72.70
75627;BME280;64211;49.404;11.034;2022-10-20T08:28:09;98453.06;;;11.12;70.58
75627;BME280;64211;49.404;11.034;2022-10-20T08:30:36;98438.63;;;11.20;71.55
75627;BME280;64211;49.404;11.034;2022-10-20T08:33:02;98440.25;;;11.21;71.47
75627;BME280;64211;49.404;11.034;2022-10-20T08:35:28;98447.63;;;11.25;71.74
75627;BME280;64211;49.404;11.034;2022-10-20T08:37:54;98451.88;;;11.33;70.58
75627;BME280;64211;49.404;11.034;2022-10-20T08:40:26;98458.63;;;11.42;70.35
75627;BME280;64211;49.404;11.034;2022-10-20T08:42:52;98457.16;;;11.46;70.01
75627;BME280;64211;49.404;11.034;2022-10-20T08:45:23;98450.72;;;11.54;69.55
75627;BME280;64211;49.404;11.034;2022-10-20T08:47:52;98451.75;;;11.53;69.54
75627;BME280;64211;49.404;11.034;2022-10-20T08:50:19;98454.59;;;11.58;68.55
75627;BME280;64211;49.404;11.034;2022-10-20T08:52:50;98452.56;;;11.60;68.73
75627;BME280;64211;49.404;11.034;2022-10-20T08:55:29;98445.91;;;11.69;69.42
75627;BME280;64211;49.404;11.034;2022-10-20T08:58:12;98438.59;;;11.83;69.51
75627;BME280;64211;49.404;11.034;2022-10-20T09:00:39;98434.34;;;12.00;70.14
75627;BME280;64211;49.404;11.034;2022-10-20T09:03:28;98432.84;;;12.11;68.50
75627;BME280;64211;49.404;11.034;2022-10-20T09:06:00;98426.66;;;12.10;68.27
75627;BME280;64211;49.404;11.034;2022-10-20T09:08:29;98430.97;;;12.11;67.44
75627;BME280;64211;49.404;11.034;2022-10-20T09:10:56;98429.97;;;12.06;67.75
75627;BME280;64211;49.404;11.034;2022-10-20T09:13:28;98419.13;;;12.01;67.13
75627;BME280;64211;49.404;11.034;2022-10-20T09:15:58;98421.81;;;12.01;67.77
75627;BME280;64211;49.404;11.034;2022-10-20T09:18:25;98414.75;;;12.06;68.23
75627;BME280;64211;49.404;11.034;2022-10-20T09:20:55;98413.88;;;12.12;68.47
75627;BME280;64211;49.404;11.034;2022-10-20T09:23:43;98413.59;;;12.20;68.28
75627;BME280;64211;49.404;11.034;2022-10-20T09:26:14;98406.91;;;12.29;66.88
75627;BME280;64211;49.404;11.034;2022-10-20T09:29:15;98406.19;;;12.41;67.19
75627;BME280;64211;49.404;11.034;2022-10-20T09:31:50;98414.94;;;12.48;66.60
75627;BME280;64211;49.404;11.034;2022-10-20T09:37:11;98402.38;;;12.48;67.38
75627;BME280;64211;49.404;11.034;2022-10-20T09:39:55;98404.47;;;12.46;66.48
75627;BME280;64211;49.404;11.034;2022-10-20T09:42:28;98406.03;;;12.54;66.85
75627;BME280;64211;49.404;11.034;2022-10-20T09:45:03;98407.72;;;12.67;67.21
75627;BME280;64211;49.404;11.034;2022-10-20T09:47:29;98401.19;;;12.81;67.39
75627;BME280;64211;49.404;11.034;2022-10-20T09:49:58;98405.03;;;12.85;65.78
75627;BME280;64211;49.404;11.034;2022-10-20T09:52:28;98397.28;;;12.95;66.74
75627;BME280;64211;49.404;11.034;2022-10-20T09:55:00;98393.59;;;13.08;66.35
75627;BME280;64211;49.404;11.034;2022-10-20T09:57:26;98398.63;;;13.16;64.59
75627;BME280;64211;49.404;11.034;2022-10-20T09:59:52;98388.53;;;13.18;65.06
75627;BME280;64211;49.404;11.034;2022-10-20T10:04:52;98389.28;;;13.25;66.18
75627;BME280;64211;49.404;11.034;2022-10-20T10:09:55;98383.47;;;13.40;64.37
75627;BME280;64211;49.404;11.034;2022-10-20T10:12:23;98382.06;;;13.37;65.07
75627;BME280;64211;49.404;11.034;2022-10-20T10:14:51;98386.38;;;13.38;64.75
75627;BME280;64211;49.404;11.034;2022-10-20T10:17:53;98384.88;;;13.42;64.37
75627;BME280;64211;49.404;11.034;2022-10-20T10:22:47;98381.25;;;13.48;64.99
75627;BME280;64211;49.404;11.034;2022-10-20T10:25:16;98383.88;;;13.55;64.18
75627;BME280;64211;49.404;11.034;2022-10-20T10:27:59;98367.31;;;13.58;64.13
75627;BME280;64211;49.404;11.034;2022-10-20T10:30:26;98369.75;;;13.71;64.73
75627;BME280;64211;49.404;11.034;2022-10-20T10:32:54;98365.47;;;13.82;63.61
75627;BME280;64211;49.404;11.034;2022-10-20T10:35:30;98362.31;;;13.85;63.50
75627;BME280;64211;49.404;11.034;2022-10-20T10:37:58;98369.75;;;13.95;64.05
75627;BME280;64211;49.404;11.034;2022-10-20T10:40:38;98367.69;;;13.97;63.32
75627;BME280;64211;49.404;11.034;2022-10-20T10:43:24;98360.56;;;14.02;63.64
75627;BME280;64211;49.404;11.034;2022-10-20T10:46:01;98359.84;;;14.07;62.49
75627;BME280;64211;49.404;11.034;2022-10-20T10:56:48;98322.56;;;14.86;62.58
75627;BME280;64211;49.404;11.034;2022-10-20T10:59:23;98319.00;;;14.97;60.44
75627;BME280;64211;49.404;11.034;2022-10-20T11:10:04;98362.25;;;15.12;61.06
75627;BME280;64211;49.404;11.034;2022-10-20T11:18:08;98359.34;;;15.30;60.81
75627;BME280;64211;49.404;11.034;2022-10-20T11:20:51;98354.16;;;15.41;59.15
75627;BME280;64211;49.404;11.034;2022-10-20T11:26:43;98345.88;;;15.76;59.25
75627;BME280;64211;49.404;11.034;2022-10-20T11:29:39;98321.66;;;15.92;59.62
75627;BME280;64211;49.404;11.034;2022-10-20T11:34:43;98308.78;;;16.16;57.73
75627;BME280;64211;49.404;11.034;2022-10-20T11:39:53;98294.69;;;15.87;57.58
75627;BME280;64211;49.404;11.034;2022-10-20T11:42:39;98293.63;;;15.88;58.14
75627;BME280;64211;49.404;11.034;2022-10-20T11:45:24;98302.75;;;15.87;57.54
75627;BME280;64211;49.404;11.034;2022-10-20T11:48:42;98298.63;;;16.02;58.30
75627;BME280;64211;49.404;11.034;2022-10-20T11:50:46;98298.38;;;16.03;58.18
75627;BME280;64211;49.404;11.034;2022-10-20T11:53:26;98296.34;;;16.10;58.23
75627;BME280;64211;49.404;11.034;2022-10-20T12:01:28;98283.59;;;16.49;57.07
75627;BME280;64211;49.404;11.034;2022-10-20T12:09:17;98267.22;;;16.56;56.94
75627;BME280;64211;49.404;11.034;2022-10-20T12:11:52;98269.63;;;16.52;57.97
75627;BME280;64211;49.404;11.034;2022-10-20T12:14:28;98283.25;;;16.41;57.58
75627;BME280;64211;49.404;11.034;2022-10-20T12:17:03;98292.63;;;16.38;57.99
75627;BME280;64211;49.404;11.034;2022-10-20T12:19:32;98288.38;;;16.42;58.03
75627;BME280;64211;49.404;11.034;2022-10-20T12:27:28;98260.16;;;16.50;58.88
75627;BME280;64211;49.404;11.034;2022-10-20T12:32:56;98262.97;;;16.33;58.03
75627;BME280;64211;49.404;11.034;2022-10-20T12:35:27;98273.53;;;16.40;58.59
75627;BME280;64211;49.404;11.034;2022-10-20T12:37:58;98271.50;;;16.52;58.77
75627;BME280;64211;49.404;11.034;2022-10-20T12:40:48;98269.75;;;16.63;57.99
75627;BME280;64211;49.404;11.034;2022-10-20T12:43:28;98260.59;;;16.64;57.48
75627;BME280;64211;49.404;11.034;2022-10-20T12:46:08;98260.16;;;16.72;57.85
75627;BME280;64211;49.404;11.034;2022-10-20T12:48:41;98252.38;;;16.75;57.60
75627;BME280;64211;49.404;11.034;2022-10-20T12:51:20;98242.94;;;16.73;58.23
75627;BME280;64211;49.404;11.034;2022-10-20T12:53:57;98250.19;;;16.72;57.44
75627;BME280;64211;49.404;11.034;2022-10-20T12:56:26;98243.44;;;16.70;57.02
75627;BME280;64211;49.404;11.034;2022-10-20T13:07:58;98259.81;;;16.90;56.86
75627;BME280;64211;49.404;11.034;2022-10-20T13:15:31;98252.94;;;17.04;57.19
75627;BME280;64211;49.404;11.034;2022-10-20T13:23:35;98240.50;;;17.03;56.65
75627;BME280;64211;49.404;11.034;2022-10-20T13:26:29;98255.81;;;16.98;57.13
75627;BME280;64211;49.404;11.034;2022-10-20T13:28:58;98250.66;;;16.91;57.45
75627;BME280;64211;49.404;11.034;2022-10-20T13:31:35;98254.97;;;16.92;57.36
75627;BME280;64211;49.404;11.034;2022-10-20T13:39:37;98257.59;;;16.82;57.60
75627;BME280;64211;49.404;11.034;2022-10-20T13:42:12;98240.75;;;16.70;58.08
75627;BME280;64211;49.404;11.034;2022-10-20T13:44:53;98241.81;;;16.69;57.97
75627;BME280;64211;49.404;11.034;2022-10-20T13:50:15;98238.31;;;16.68;58.62
75627;BME280;64211;49.404;11.034;2022-10-20T13:55:56;98215.13;;;16.67;58.16
75627;BME280;64211;49.404;11.034;2022-10-20T13:58:23;98221.34;;;16.68;58.60
75627;BME280;64211;49.404;11.034;2022-10-20T14:00:58;98229.16;;;16.69;58.68
75627;BME280;64211;49.404;11.034;2022-10-20T14:03:24;98222.03;;;16.58;58.90
75627;BME280;64211;49.404;11.034;2022-10-20T14:05:50;98229.31;;;16.57;58.60
75627;BME280;64211;49.404;11.034;2022-10-20T14:08:18;98234.56;;;16.47;58.88
75627;BME280;64211;49.404;11.034;2022-10-20T14:10:56;98247.16;;;16.42;59.73
75627;BME280;64211;49.404;11.034;2022-10-20T14:13:25;98249.56;;;16.38;58.87
75627;BME280;64211;49.404;11.034;2022-10-20T14:15:56;98248.75;;;16.38;59.57
75627;BME280;64211;49.404;11.034;2022-10-20T14:18:30;98244.16;;;16.38;59.92
75627;BME280;64211;49.404;11.034;2022-10-20T14:21:04;98245.06;;;16.22;59.61
75627;BME280;64211;49.404;11.034;2022-10-20T14:23:36;98242.31;;;16.17;59.85
75627;BME280;64211;49.404;11.034;2022-10-20T14:26:03;98237.75;;;16.17;60.46
75627;BME280;64211;49.404;11.034;2022-10-20T14:28:32;98238.50;;;16.13;60.50
75627;BME280;64211;49.404;11.034;2022-10-20T14:31:00;98230.13;;;16.09;60.82
75627;BME280;64211;49.404;11.034;2022-10-20T14:33:27;98240.47;;;16.01;60.71
75627;BME280;64211;49.404;11.034;2022-10-20T14:35:56;98236.97;;;16.00;61.35
75627;BME280;64211;49.404;11.034;2022-10-20T14:38:33;98254.44;;;15.98;61.29
75627;BME280;64211;49.404;11.034;2022-10-20T14:41:03;98245.75;;;15.90;61.64
75627;BME280;64211;49.404;11.034;2022-10-20T14:43:44;98237.63;;;15.85;61.64
75627;BME280;64211;49.404;11.034;2022-10-20T14:46:24;98241.94;;;15.86;62.38
75627;BME280;64211;49.404;11.034;2022-10-20T14:48:51;98227.41;;;15.87;62.37